createdAt,value
2019-05-17T00:00:03.960Z,58.77
2019-05-17T00:01:03.944Z,58.76
2019-05-17T00:02:03.940Z,57.94
2019-05-17T00:03:06.615Z,58.95
2019-05-17T00:04:03.915Z,59.35
2019-05-17T00:05:03.906Z,59.81
2019-05-17T00:06:06.477Z,58.02
2019-05-17T00:07:06.324Z,61.19
2019-05-17T00:08:03.872Z,59.27
2019-05-17T00:09:03.866Z,58.22
2019-05-17T00:10:03.857Z,56.62
2019-05-17T00:11:03.841Z,56.37
2019-05-17T00:12:03.825Z,59.69
2019-05-17T00:13:03.817Z,59.01
2019-05-17T00:14:06.167Z,59.61
2019-05-17T00:15:03.795Z,59.79
2019-05-17T00:16:03.785Z,58.90
2019-05-17T00:17:03.773Z,58.23
2019-05-17T00:18:03.759Z,60.46
2019-05-17T00:19:03.752Z,58.21
2019-05-17T00:20:03.739Z,60.45
2019-05-17T00:21:03.728Z,60.82
2019-05-17T00:22:03.713Z,60.25
2019-05-17T00:23:03.702Z,59.49
2019-05-17T00:24:03.689Z,60.73
2019-05-17T00:25:03.691Z,59.70
2019-05-17T00:26:03.669Z,59.72
2019-05-17T00:27:03.674Z,59.99
2019-05-17T00:28:03.646Z,58.24
2019-05-17T00:29:03.639Z,59.19
2019-05-17T00:30:03.629Z,58.48
2019-05-17T00:31:03.615Z,57.88
2019-05-17T00:32:03.630Z,59.27
2019-05-17T00:33:03.599Z,60.27
2019-05-17T00:34:03.586Z,57.53
2019-05-17T00:35:03.566Z,56.72
2019-05-17T00:36:03.561Z,55.92
2019-05-17T00:37:03.546Z,58.70
2019-05-17T00:38:03.534Z,59.26
2019-05-17T00:39:03.525Z,56.76
2019-05-17T00:40:03.512Z,58.68
2019-05-17T00:41:03.498Z,59.86
2019-05-17T00:42:03.493Z,59.68
2019-05-17T00:43:03.487Z,58.58
2019-05-17T00:44:03.470Z,59.23
2019-05-17T00:45:03.458Z,60.95
2019-05-17T00:46:03.452Z,59.89
2019-05-17T00:47:03.438Z,58.76
2019-05-17T00:48:03.432Z,58.44
2019-05-17T00:49:03.410Z,59.97
2019-05-17T00:50:03.414Z,59.66
2019-05-17T00:51:03.403Z,60.91
2019-05-17T00:52:03.382Z,58.78
2019-05-17T00:53:03.371Z,58.77
2019-05-17T00:54:03.359Z,56.81
2019-05-17T00:55:03.358Z,56.67
2019-05-17T00:56:03.332Z,54.41
2019-05-17T00:57:03.322Z,54.93
2019-05-17T00:58:03.310Z,57.44
2019-05-17T00:59:03.302Z,55.61
2019-05-17T01:00:03.292Z,55.34
2019-05-17T01:01:03.313Z,55.83
2019-05-17T01:02:03.269Z,52.98
2019-05-17T01:03:03.260Z,54.34
2019-05-17T01:04:03.249Z,53.61
2019-05-17T01:05:03.242Z,54.35
2019-05-17T01:06:03.225Z,54.02
2019-05-17T01:07:03.212Z,53.82
2019-05-17T01:08:03.205Z,53.38
2019-05-17T01:09:04.164Z,50.50
2019-05-17T01:10:03.177Z,52.56
2019-05-17T01:11:03.165Z,50.73
2019-05-17T01:12:03.157Z,49.86
2019-05-17T01:13:03.141Z,53.38
2019-05-17T01:14:03.131Z,53.18
2019-05-17T01:15:03.120Z,53.81
2019-05-17T01:16:03.115Z,50.89
2019-05-17T01:17:03.103Z,49.97
2019-05-17T01:18:03.113Z,52.28
2019-05-17T01:19:03.084Z,48.37
2019-05-17T01:20:03.062Z,48.86
2019-05-17T01:21:03.058Z,49.36
2019-05-17T01:22:03.044Z,47.81
2019-05-17T01:23:03.045Z,52.47
2019-05-17T01:24:03.017Z,50.39
2019-05-17T01:25:03.014Z,51.45
2019-05-17T01:26:02.999Z,46.60
2019-05-17T01:27:02.989Z,53.42
2019-05-17T01:28:02.991Z,53.72
2019-05-17T01:29:02.972Z,50.10
2019-05-17T01:30:02.950Z,49.79
2019-05-17T01:31:02.943Z,51.00
2019-05-17T01:32:02.929Z,50.84
2019-05-17T01:33:02.923Z,53.28
2019-05-17T01:34:02.922Z,50.87
2019-05-17T01:35:02.897Z,50.06
2019-05-17T01:36:02.885Z,52.70
2019-05-17T01:37:02.875Z,48.51
2019-05-17T01:38:02.875Z,48.64
2019-05-17T01:39:14.293Z,53.42
2019-05-17T01:40:03.849Z,53.90
2019-05-17T01:41:02.833Z,53.50
2019-05-17T01:42:02.821Z,54.20
2019-05-17T01:43:02.812Z,55.40
2019-05-17T01:44:02.795Z,53.94
2019-05-17T01:45:02.800Z,53.98
2019-05-17T01:46:02.775Z,51.54
2019-05-17T01:47:02.776Z,53.57
2019-05-17T01:48:02.753Z,54.04
2019-05-17T01:49:02.738Z,53.99
2019-05-17T01:50:02.733Z,53.97
2019-05-17T01:51:02.716Z,53.98
2019-05-17T01:52:02.709Z,55.52
2019-05-17T01:53:02.709Z,53.32
2019-05-17T01:54:02.681Z,55.56
2019-05-17T01:55:02.686Z,53.58
2019-05-17T01:56:02.658Z,52.84
2019-05-17T01:57:02.652Z,54.90
2019-05-17T01:58:02.643Z,55.06
2019-05-17T01:59:02.626Z,52.74
2019-05-17T02:00:02.622Z,53.82
2019-05-17T02:01:02.611Z,55.05
2019-05-17T02:02:02.595Z,53.73
2019-05-17T02:03:02.631Z,54.19
2019-05-17T02:04:02.575Z,58.17
2019-05-17T02:05:02.572Z,55.47
2019-05-17T02:06:02.548Z,57.82
2019-05-17T02:07:02.547Z,52.73
2019-05-17T02:08:02.534Z,50.49
2019-05-17T02:09:02.518Z,47.31
2019-05-17T02:10:02.527Z,48.05
2019-05-17T02:11:02.502Z,53.32
2019-05-17T02:12:02.480Z,54.70
2019-05-17T02:13:02.472Z,51.35
2019-05-17T02:14:02.478Z,51.04
2019-05-17T02:15:02.660Z,49.09
2019-05-17T02:16:02.437Z,52.22
2019-05-17T02:17:02.441Z,50.72
2019-05-17T02:18:02.417Z,54.20
2019-05-17T02:19:02.408Z,49.97
2019-05-17T02:20:02.394Z,53.78
2019-05-17T02:21:02.382Z,51.38
2019-05-17T02:22:02.380Z,55.45
2019-05-17T02:23:02.362Z,55.18
2019-05-17T02:24:02.354Z,55.09
2019-05-17T02:25:02.365Z,52.01
2019-05-17T02:26:02.329Z,53.39
2019-05-17T02:27:02.321Z,47.20
2019-05-17T02:28:02.320Z,52.75
2019-05-17T02:29:02.295Z,54.87
2019-05-17T02:30:02.933Z,53.49
2019-05-17T02:31:03.444Z,50.65
2019-05-17T02:32:03.771Z,53.94
2019-05-17T02:33:03.704Z,53.18
2019-05-17T02:34:03.037Z,51.93
2019-05-17T02:35:03.335Z,57.08
2019-05-17T02:36:02.995Z,56.31
2019-05-17T02:37:03.002Z,56.84
2019-05-17T02:38:03.064Z,54.37
2019-05-17T02:39:03.599Z,54.55
2019-05-17T02:40:07.669Z,50.02
2019-05-17T02:41:03.633Z,47.57
2019-05-17T02:42:02.896Z,52.86
2019-05-17T02:43:03.171Z,52.24
2019-05-17T02:44:02.458Z,55.85
2019-05-17T02:45:03.178Z,55.44
2019-05-17T02:46:03.762Z,55.09
2019-05-17T02:47:03.196Z,54.82
2019-05-17T02:48:03.673Z,53.88
2019-05-17T02:49:03.086Z,56.72
2019-05-17T02:50:05.674Z,54.76
2019-05-17T02:51:03.502Z,54.33
2019-05-17T02:52:03.171Z,55.01
2019-05-17T02:53:04.442Z,50.12
2019-05-17T02:54:04.209Z,53.17
2019-05-17T02:55:03.912Z,54.40
2019-05-17T02:56:03.197Z,48.44
2019-05-17T02:57:03.072Z,54.76
2019-05-17T02:58:03.146Z,51.83
2019-05-17T02:59:03.602Z,53.29
2019-05-17T03:00:04.532Z,52.13
2019-05-17T03:01:03.646Z,54.08
2019-05-17T03:02:03.473Z,50.97
2019-05-17T03:03:03.481Z,49.58
2019-05-17T03:04:03.981Z,48.51
2019-05-17T03:05:03.953Z,50.86
2019-05-17T03:06:03.168Z,56.17
2019-05-17T03:07:03.754Z,53.49
2019-05-17T03:08:04.119Z,55.70
2019-05-17T03:09:03.500Z,53.62
2019-05-17T03:10:17.069Z,51.57
2019-05-17T03:11:03.485Z,51.88
2019-05-17T03:12:03.296Z,50.69
2019-05-17T03:13:04.144Z,52.62
2019-05-17T03:14:04.059Z,50.58
2019-05-17T03:15:04.190Z,51.98
2019-05-17T03:16:03.435Z,54.65
2019-05-17T03:17:03.301Z,52.17
2019-05-17T03:18:03.660Z,48.36
2019-05-17T03:19:04.272Z,52.90
2019-05-17T03:20:03.911Z,51.00
2019-05-17T03:21:03.816Z,52.87
2019-05-17T03:22:07.236Z,51.77
2019-05-17T03:23:03.769Z,49.85
2019-05-17T03:24:03.210Z,50.64
2019-05-17T03:25:03.246Z,56.02
2019-05-17T03:26:03.668Z,53.72
2019-05-17T03:27:03.020Z,45.42
2019-05-17T03:28:03.000Z,47.94
2019-05-17T03:29:03.354Z,47.34
2019-05-17T03:30:04.048Z,51.52
2019-05-17T03:31:07.778Z,45.41
2019-05-17T03:32:08.749Z,49.56
2019-05-17T03:33:07.400Z,52.31
2019-05-17T03:34:06.550Z,52.80
2019-05-17T03:35:06.720Z,48.49
2019-05-17T03:36:06.592Z,46.75
2019-05-17T03:37:06.379Z,47.72
2019-05-17T03:38:03.656Z,44.75
2019-05-17T03:39:03.061Z,48.83
2019-05-17T03:40:04.764Z,52.93
2019-05-17T03:41:13.943Z,46.26
2019-05-17T03:42:02.829Z,50.59
2019-05-17T03:43:02.854Z,50.84
2019-05-17T03:44:03.246Z,47.39
2019-05-17T03:45:03.073Z,47.96
2019-05-17T03:46:02.716Z,51.31
2019-05-17T03:47:02.395Z,52.71
2019-05-17T03:48:04.642Z,47.60
2019-05-17T03:49:03.878Z,48.12
2019-05-17T03:50:03.195Z,48.37
2019-05-17T03:51:02.630Z,47.03
2019-05-17T03:52:02.813Z,47.10
2019-05-17T03:53:02.403Z,50.77
2019-05-17T03:54:02.335Z,49.80
2019-05-17T03:55:03.870Z,50.06
2019-05-17T03:56:02.984Z,49.86
2019-05-17T03:57:02.899Z,54.41
2019-05-17T03:58:03.392Z,53.11
2019-05-17T03:59:03.844Z,51.65
2019-05-17T04:00:03.825Z,52.10
2019-05-17T04:01:04.085Z,49.90
2019-05-17T04:02:03.282Z,49.45
2019-05-17T04:03:02.952Z,50.63
2019-05-17T04:04:02.894Z,45.61
2019-05-17T04:05:04.394Z,43.54
2019-05-17T04:06:03.907Z,42.69
2019-05-17T04:07:03.469Z,42.94
2019-05-17T04:08:03.512Z,43.74
2019-05-17T04:09:03.604Z,43.60
2019-05-17T04:10:04.433Z,44.67
2019-05-17T04:11:17.656Z,46.04
2019-05-17T04:12:02.943Z,49.88
2019-05-17T04:13:04.210Z,48.33
2019-05-17T04:14:02.978Z,42.64
2019-05-17T04:15:03.158Z,41.09
2019-05-17T04:16:05.671Z,45.19
2019-05-17T04:17:03.006Z,47.15
2019-05-17T04:18:04.163Z,46.55
2019-05-17T04:19:03.173Z,49.47
2019-05-17T04:20:03.596Z,46.84
2019-05-17T04:21:03.456Z,40.69
2019-05-17T04:22:03.513Z,49.13
2019-05-17T04:23:03.901Z,50.06
2019-05-17T04:24:03.194Z,49.56
2019-05-17T04:25:03.051Z,50.38
2019-05-17T04:26:03.829Z,47.57
2019-05-17T04:27:03.660Z,46.37
2019-05-17T04:28:02.797Z,47.70
2019-05-17T04:29:03.599Z,48.65
2019-05-17T04:30:03.664Z,45.92
2019-05-17T04:31:02.870Z,47.29
2019-05-17T04:32:03.938Z,47.60
2019-05-17T04:33:03.567Z,44.42
2019-05-17T04:34:03.069Z,45.15
2019-05-17T04:35:03.730Z,47.87
2019-05-17T04:36:02.594Z,44.87
2019-05-17T04:37:03.978Z,48.16
2019-05-17T04:38:04.294Z,48.62
2019-05-17T04:39:02.437Z,47.34
2019-05-17T04:40:03.517Z,47.56
2019-05-17T04:41:03.366Z,47.36
2019-05-17T04:42:03.771Z,45.55
2019-05-17T04:43:03.298Z,47.97
2019-05-17T04:44:02.779Z,43.06
2019-05-17T04:45:03.619Z,46.52
2019-05-17T04:46:02.748Z,44.66
2019-05-17T04:47:03.207Z,47.74
2019-05-17T04:48:03.640Z,45.91
2019-05-17T04:49:02.973Z,43.61
2019-05-17T04:50:04.052Z,40.38
2019-05-17T04:51:02.500Z,40.26
2019-05-17T04:52:03.581Z,44.38
2019-05-17T04:53:02.700Z,45.31
2019-05-17T04:54:03.285Z,42.93
2019-05-17T04:55:03.652Z,42.98
2019-05-17T04:56:03.107Z,41.35
2019-05-17T04:57:02.698Z,43.30
2019-05-17T04:58:03.861Z,48.37
2019-05-17T04:59:03.263Z,42.05
2019-05-17T05:00:03.856Z,43.43
2019-05-17T05:01:03.616Z,41.39
2019-05-17T05:02:03.031Z,41.05
2019-05-17T05:03:03.474Z,41.24
2019-05-17T05:04:03.491Z,40.19
2019-05-17T05:05:03.308Z,43.10
2019-05-17T05:06:02.972Z,35.77
2019-05-17T05:07:03.220Z,37.87
2019-05-17T05:08:03.139Z,34.88
2019-05-17T05:09:02.529Z,35.10
2019-05-17T05:10:03.020Z,38.43
2019-05-17T05:11:03.222Z,36.20
2019-05-17T05:12:05.393Z,32.78
2019-05-17T05:13:03.077Z,33.26
2019-05-17T05:14:02.869Z,35.58
2019-05-17T05:15:03.244Z,34.92
2019-05-17T05:16:02.838Z,36.46
2019-05-17T05:17:02.588Z,39.27
2019-05-17T05:18:02.363Z,36.25
2019-05-17T05:19:02.979Z,34.52
2019-05-17T05:20:02.786Z,36.28
2019-05-17T05:21:03.198Z,43.60
2019-05-17T05:22:04.355Z,45.81
2019-05-17T05:23:02.548Z,46.17
2019-05-17T05:24:02.424Z,45.74
2019-05-17T05:25:02.187Z,38.69
2019-05-17T05:26:02.804Z,49.47
2019-05-17T05:27:02.515Z,49.56
2019-05-17T05:28:02.299Z,53.27
2019-05-17T05:29:02.096Z,54.32
2019-05-17T05:30:02.869Z,44.62
2019-05-17T05:31:01.988Z,44.62
2019-05-17T05:32:02.462Z,45.52
2019-05-17T05:33:02.018Z,41.47
2019-05-17T05:34:01.904Z,47.65
2019-05-17T05:35:02.894Z,48.81
2019-05-17T05:36:02.240Z,39.79
2019-05-17T05:37:02.139Z,43.23
2019-05-17T05:38:02.196Z,48.03
2019-05-17T05:39:02.205Z,50.08
2019-05-17T05:40:02.049Z,51.36
2019-05-17T05:41:01.859Z,53.09
2019-05-17T05:42:08.103Z,55.16
2019-05-17T05:43:02.370Z,48.77
2019-05-17T05:44:01.906Z,50.87
2019-05-17T05:45:00.089Z,51.97
2019-05-17T05:46:02.317Z,52.42
2019-05-17T05:47:02.186Z,49.74
2019-05-17T05:48:01.848Z,53.60
2019-05-17T05:49:01.850Z,50.75
2019-05-17T05:50:01.834Z,45.16
2019-05-17T05:51:02.859Z,51.56
2019-05-17T05:52:02.022Z,50.22
2019-05-17T05:53:01.964Z,43.19
2019-05-17T05:54:01.660Z,47.87
2019-05-17T05:55:01.473Z,58.22
2019-05-17T05:56:02.911Z,56.91
2019-05-17T05:57:02.336Z,46.14
2019-05-17T05:57:59.954Z,52.09
2019-05-17T05:58:59.944Z,53.73
2019-05-17T06:00:02.236Z,46.66
2019-05-17T06:01:02.349Z,43.47
2019-05-17T06:02:01.758Z,47.58
2019-05-17T06:02:59.890Z,48.80
2019-05-17T06:03:59.873Z,46.87
2019-05-17T06:05:02.026Z,52.58
2019-05-17T06:06:01.830Z,54.33
2019-05-17T06:06:59.854Z,53.06
2019-05-17T06:07:59.833Z,49.25
2019-05-17T06:08:59.830Z,45.37
2019-05-17T06:10:02.041Z,45.75
2019-05-17T06:11:01.916Z,42.28
2019-05-17T06:12:02.245Z,38.18
2019-05-17T06:13:02.613Z,44.35
2019-05-17T06:14:01.632Z,43.59
2019-05-17T06:14:59.770Z,45.29
2019-05-17T06:15:59.741Z,46.57
2019-05-17T06:17:02.337Z,41.66
2019-05-17T06:17:59.727Z,39.00
2019-05-17T06:18:59.710Z,41.74
2019-05-17T06:19:59.698Z,38.10
2019-05-17T06:20:59.747Z,41.21
2019-05-17T06:21:59.686Z,43.99
2019-05-17T06:22:59.666Z,44.22
2019-05-17T06:23:59.647Z,35.06
2019-05-17T06:24:59.639Z,48.41
2019-05-17T06:26:03.332Z,46.50
2019-05-17T06:27:01.691Z,40.36
2019-05-17T06:28:01.590Z,43.81
2019-05-17T06:28:59.597Z,41.22
2019-05-17T06:30:01.542Z,39.28
2019-05-17T06:30:59.572Z,39.94
2019-05-17T06:31:59.558Z,43.15
2019-05-17T06:32:59.542Z,40.07
2019-05-17T06:34:01.806Z,36.07
2019-05-17T06:35:01.673Z,36.16
2019-05-17T06:36:02.408Z,36.02
2019-05-17T06:37:02.052Z,32.05
2019-05-17T06:38:01.774Z,38.42
2019-05-17T06:38:59.479Z,35.91
2019-05-17T06:40:02.092Z,33.64
2019-05-17T06:41:01.462Z,37.19
2019-05-17T06:41:59.454Z,34.59
2019-05-17T06:42:59.475Z,37.40
2019-05-17T06:43:59.422Z,38.45
2019-05-17T06:45:01.952Z,39.50
2019-05-17T06:46:01.570Z,41.92
2019-05-17T06:46:59.392Z,26.47
2019-05-17T06:47:59.485Z,27.84
2019-05-17T06:48:59.362Z,32.56
2019-05-17T06:49:59.358Z,28.63
2019-05-17T06:50:59.360Z,30.55
2019-05-17T06:51:59.329Z,38.01
2019-05-17T06:52:59.339Z,39.53
2019-05-17T06:54:01.620Z,31.47
2019-05-17T06:54:59.298Z,37.55
2019-05-17T06:55:59.284Z,37.29
2019-05-17T06:56:59.274Z,32.54
2019-05-17T06:58:01.532Z,34.26
2019-05-17T06:58:59.256Z,38.57
2019-05-17T07:00:00.149Z,34.79
2019-05-17T07:00:59.951Z,36.61
2019-05-17T07:01:59.748Z,32.28
2019-05-17T07:03:00.668Z,33.08
2019-05-17T07:04:00.296Z,33.83
2019-05-17T07:05:01.326Z,32.03
2019-05-17T07:05:59.610Z,35.33
2019-05-17T07:07:00.090Z,31.40
2019-05-17T07:08:00.263Z,35.08
2019-05-17T07:09:00.973Z,26.58
2019-05-17T07:10:00.531Z,34.54
2019-05-17T07:10:59.801Z,29.03
2019-05-17T07:11:59.627Z,31.46
2019-05-17T07:13:01.878Z,29.40
2019-05-17T07:13:59.772Z,34.55
2019-05-17T07:15:01.467Z,28.88
2019-05-17T07:15:59.759Z,37.00
2019-05-17T07:16:59.617Z,28.57
2019-05-17T07:17:59.980Z,31.76
2019-05-17T07:18:59.730Z,29.30
2019-05-17T07:19:59.719Z,25.75
2019-05-17T07:21:02.866Z,34.44
2019-05-17T07:22:00.018Z,31.85
2019-05-17T07:23:00.423Z,25.97
2019-05-17T07:23:59.484Z,27.66
2019-05-17T07:24:59.782Z,31.06
2019-05-17T07:25:59.599Z,27.50
2019-05-17T07:26:59.245Z,35.81
2019-05-17T07:28:00.482Z,26.59
2019-05-17T07:28:59.329Z,33.01
2019-05-17T07:29:59.310Z,31.76
2019-05-17T07:30:59.617Z,20.26
2019-05-17T07:32:00.367Z,24.39
2019-05-17T07:33:00.354Z,29.80
2019-05-17T07:33:59.866Z,34.54
2019-05-17T07:35:00.086Z,30.80
2019-05-17T07:35:59.551Z,27.35
2019-05-17T07:36:59.757Z,30.99
2019-05-17T07:37:59.558Z,23.60
2019-05-17T07:39:00.801Z,28.54
2019-05-17T07:40:04.703Z,29.20
2019-05-17T07:40:59.839Z,35.99
2019-05-17T07:41:59.980Z,23.57
2019-05-17T07:43:09.825Z,31.67
2019-05-17T07:44:00.402Z,25.26
2019-05-17T07:45:00.560Z,21.08
2019-05-17T07:46:00.491Z,23.87
2019-05-17T07:47:00.166Z,27.67
2019-05-17T07:48:00.158Z,29.14
2019-05-17T07:49:00.381Z,28.45
2019-05-17T07:50:01.049Z,36.44
2019-05-17T07:50:59.410Z,28.98
2019-05-17T07:52:00.582Z,28.41
2019-05-17T07:53:00.652Z,29.04
2019-05-17T07:53:59.714Z,31.02
2019-05-17T07:55:02.501Z,30.25
2019-05-17T07:55:59.622Z,26.82
2019-05-17T07:57:00.271Z,34.63
2019-05-17T07:58:00.225Z,32.65
2019-05-17T07:59:00.010Z,30.99
2019-05-17T07:59:59.983Z,33.98
2019-05-17T08:00:58.538Z,32.84
2019-05-17T08:01:59.731Z,35.44
2019-05-17T08:02:59.915Z,30.35
2019-05-17T08:04:00.699Z,29.20
2019-05-17T08:05:00.430Z,28.64
2019-05-17T08:05:59.952Z,28.27
2019-05-17T08:06:59.825Z,30.38
2019-05-17T08:08:00.098Z,29.39
2019-05-17T08:09:01.281Z,34.59
2019-05-17T08:10:00.189Z,32.41
2019-05-17T08:11:00.364Z,30.21
2019-05-17T08:11:59.719Z,26.95
2019-05-17T08:12:59.922Z,35.83
2019-05-17T08:13:59.761Z,33.70
2019-05-17T08:14:59.842Z,26.22
2019-05-17T08:15:59.491Z,31.26
2019-05-17T08:16:59.871Z,29.72
2019-05-17T08:17:59.376Z,30.98
2019-05-17T08:19:00.317Z,39.17
2019-05-17T08:20:00.672Z,33.70
2019-05-17T08:20:59.683Z,35.45
2019-05-17T08:21:59.704Z,33.35
2019-05-17T08:22:59.533Z,30.72
2019-05-17T08:24:00.053Z,27.12
2019-05-17T08:25:00.046Z,30.51
2019-05-17T08:26:00.447Z,33.65
2019-05-17T08:26:59.932Z,23.35
2019-05-17T08:27:59.511Z,26.43
2019-05-17T08:29:00.350Z,27.19
2019-05-17T08:29:59.727Z,29.47
2019-05-17T08:31:00.904Z,24.78
2019-05-17T08:32:00.239Z,27.40
2019-05-17T08:33:00.758Z,30.90
2019-05-17T08:34:00.057Z,26.58
2019-05-17T08:35:00.325Z,21.18
2019-05-17T08:35:59.750Z,30.57
2019-05-17T08:36:58.268Z,26.92
2019-05-17T08:38:00.462Z,33.51
2019-05-17T08:38:59.662Z,29.26
2019-05-17T08:40:00.061Z,24.02
2019-05-17T08:41:00.652Z,28.06
2019-05-17T08:42:01.197Z,31.00
2019-05-17T08:43:00.132Z,25.50
2019-05-17T08:44:00.477Z,24.48
2019-05-17T08:45:00.161Z,31.08
2019-05-17T08:45:59.330Z,29.09
2019-05-17T08:46:59.501Z,25.84
2019-05-17T08:48:00.187Z,30.18
2019-05-17T08:49:00.116Z,27.01
2019-05-17T08:50:00.223Z,27.46
2019-05-17T08:51:00.079Z,32.63
2019-05-17T08:51:59.440Z,26.72
2019-05-17T08:52:59.905Z,27.23
2019-05-17T08:54:00.020Z,30.81
2019-05-17T08:55:00.141Z,22.40
2019-05-17T08:55:57.929Z,33.39
2019-05-17T08:57:00.497Z,35.05
2019-05-17T08:58:00.839Z,28.77
2019-05-17T08:58:57.890Z,26.81
2019-05-17T09:00:00.497Z,25.40
2019-05-17T09:01:00.054Z,31.10
2019-05-17T09:02:00.026Z,25.21
2019-05-17T09:02:59.936Z,30.99
2019-05-17T09:03:59.892Z,28.76
2019-05-17T09:05:00.267Z,24.73
2019-05-17T09:06:01.529Z,30.69
2019-05-17T09:06:59.719Z,36.93
2019-05-17T09:07:59.965Z,39.47
2019-05-17T09:08:57.776Z,30.86
2019-05-17T09:09:57.767Z,33.14
2019-05-17T09:11:00.095Z,29.80
2019-05-17T09:11:59.598Z,24.33
2019-05-17T09:12:59.764Z,28.52
2019-05-17T09:14:01.621Z,26.69
2019-05-17T09:14:57.705Z,37.18
2019-05-17T09:16:00.033Z,35.93
2019-05-17T09:17:00.247Z,35.11
2019-05-17T09:18:00.131Z,26.95
2019-05-17T09:18:57.659Z,28.23
2019-05-17T09:19:57.663Z,29.35
2019-05-17T09:21:00.078Z,29.33
2019-05-17T09:21:59.697Z,36.88
2019-05-17T09:22:59.929Z,31.47
2019-05-17T09:23:59.600Z,31.87
2019-05-17T09:24:59.598Z,30.55
2019-05-17T09:25:59.504Z,27.63
2019-05-17T09:26:59.731Z,34.00
2019-05-17T09:27:57.555Z,34.20
2019-05-17T09:28:57.554Z,37.96
2019-05-17T09:29:59.883Z,41.09
2019-05-17T09:30:59.694Z,39.27
2019-05-17T09:31:59.809Z,33.14
2019-05-17T09:33:00.112Z,34.90
2019-05-17T09:33:57.519Z,30.77
2019-05-17T09:34:57.483Z,27.75
2019-05-17T09:35:57.466Z,33.17
2019-05-17T09:36:57.451Z,26.94
2019-05-17T09:37:57.450Z,32.65
2019-05-17T09:38:57.428Z,31.06
2019-05-17T09:39:59.687Z,33.32
2019-05-17T09:40:59.723Z,29.45
2019-05-17T09:41:59.471Z,23.37
2019-05-17T09:42:57.386Z,32.52
2019-05-17T09:44:09.653Z,20.49
2019-05-17T09:45:00.403Z,30.66
2019-05-17T09:45:57.356Z,29.15
2019-05-17T09:46:59.439Z,23.42
2019-05-17T09:47:57.326Z,29.48
2019-05-17T09:48:57.332Z,31.64
2019-05-17T09:49:57.312Z,29.19
2019-05-17T09:50:59.728Z,31.78
2019-05-17T09:51:57.283Z,28.57
2019-05-17T09:52:57.283Z,33.95
2019-05-17T09:53:57.260Z,33.80
2019-05-17T09:54:57.269Z,25.46
2019-05-17T09:55:57.239Z,25.33
2019-05-17T09:56:57.230Z,32.79
2019-05-17T09:57:57.213Z,30.41
2019-05-17T09:58:57.203Z,34.39
2019-05-17T09:59:57.200Z,33.53
2019-05-17T10:00:57.181Z,33.78
2019-05-17T10:01:57.180Z,28.68
2019-05-17T10:02:57.158Z,30.83
2019-05-17T10:03:57.150Z,28.58
2019-05-17T10:04:57.136Z,33.64
2019-05-17T10:05:57.139Z,33.68
2019-05-17T10:06:59.266Z,28.99
2019-05-17T10:07:57.123Z,29.11
2019-05-17T10:08:57.092Z,31.73
2019-05-17T10:09:59.552Z,31.24
2019-05-17T10:11:05.923Z,28.40
2019-05-17T10:11:59.959Z,27.67
2019-05-17T10:12:57.089Z,30.16
2019-05-17T10:14:00.580Z,28.54
2019-05-17T10:14:57.021Z,28.69
2019-05-17T10:15:57.010Z,29.93
2019-05-17T10:16:57.003Z,38.61
2019-05-17T10:17:57.054Z,25.48
2019-05-17T10:18:57.063Z,27.51
2019-05-17T10:19:56.965Z,21.89
2019-05-17T10:20:56.954Z,24.24
2019-05-17T10:21:56.946Z,29.42
2019-05-17T10:22:59.428Z,26.20
2019-05-17T10:23:56.945Z,27.57
2019-05-17T10:24:56.934Z,26.74
2019-05-17T10:25:56.902Z,27.67
2019-05-17T10:26:56.905Z,27.40
2019-05-17T10:27:56.889Z,24.04
2019-05-17T10:28:59.281Z,29.22
2019-05-17T10:29:56.851Z,24.44
2019-05-17T10:30:56.853Z,22.13
2019-05-17T10:31:56.830Z,25.28
2019-05-17T10:32:56.817Z,28.54
2019-05-17T10:33:58.902Z,27.25
2019-05-17T10:34:56.799Z,37.63
2019-05-17T10:35:56.801Z,28.58
2019-05-17T10:36:56.771Z,27.27
2019-05-17T10:37:59.347Z,29.89
2019-05-17T10:38:58.896Z,20.79
2019-05-17T10:39:56.748Z,27.71
2019-05-17T10:40:56.742Z,23.28
2019-05-17T10:41:56.743Z,28.65
2019-05-17T10:42:56.705Z,26.78
2019-05-17T10:43:56.691Z,31.01
2019-05-17T10:44:56.702Z,27.38
2019-05-17T10:45:56.675Z,33.15
2019-05-17T10:46:56.662Z,29.46
2019-05-17T10:47:56.650Z,20.24
2019-05-17T10:48:56.639Z,36.08
2019-05-17T10:49:56.632Z,30.79
2019-05-17T10:50:56.615Z,14.92
2019-05-17T10:51:56.610Z,21.44
2019-05-17T10:52:56.604Z,10.07
2019-05-17T10:53:56.586Z,32.06
2019-05-17T10:54:56.573Z,24.47
2019-05-17T10:55:56.558Z,34.81
2019-05-17T10:56:56.545Z,29.58
2019-05-17T10:57:56.536Z,28.35
2019-05-17T10:58:56.525Z,27.85
2019-05-17T10:59:56.513Z,24.72
2019-05-17T11:00:56.503Z,29.24
2019-05-17T11:01:56.527Z,36.39
2019-05-17T11:02:56.488Z,36.60
2019-05-17T11:03:56.483Z,42.53
2019-05-17T11:04:56.454Z,38.24
2019-05-17T11:05:56.452Z,33.99
2019-05-17T11:06:56.436Z,35.88
2019-05-17T11:07:56.423Z,29.02
2019-05-17T11:08:56.416Z,21.57
2019-05-17T11:09:56.427Z,18.24
2019-05-17T11:10:56.436Z,42.93
2019-05-17T11:11:56.386Z,22.90
2019-05-17T11:12:56.369Z,21.19
2019-05-17T11:13:56.359Z,13.15
2019-05-17T11:15:10.235Z,48.55
2019-05-17T11:15:57.336Z,43.65
2019-05-17T11:16:56.324Z,41.84
2019-05-17T11:17:56.310Z,25.01
2019-05-17T11:18:56.308Z,28.93
2019-05-17T11:19:56.292Z,32.22
2019-05-17T11:20:56.298Z,17.31
2019-05-17T11:21:56.270Z,22.82
2019-05-17T11:22:56.265Z,29.76
2019-05-17T11:23:56.266Z,34.20
2019-05-17T11:24:56.231Z,31.08
2019-05-17T11:25:56.240Z,20.01
2019-05-17T11:26:56.208Z,35.81
2019-05-17T11:27:56.198Z,21.11
2019-05-17T11:28:56.191Z,41.64
2019-05-17T11:29:56.175Z,36.00
2019-05-17T11:30:56.169Z,32.59
2019-05-17T11:31:56.193Z,8.72
2019-05-17T11:32:56.144Z,39.30
2019-05-17T11:33:56.136Z,30.00
2019-05-17T11:34:56.141Z,29.89
2019-05-17T11:35:56.112Z,17.90
2019-05-17T11:36:56.117Z,38.93
2019-05-17T11:37:56.106Z,27.78
2019-05-17T11:38:56.076Z,48.95
2019-05-17T11:39:56.067Z,26.42
2019-05-17T11:40:56.151Z,43.51
2019-05-17T11:41:56.049Z,41.13
2019-05-17T11:42:56.045Z,33.91
2019-05-17T11:43:56.036Z,12.23
2019-05-17T11:44:56.019Z,38.93
2019-05-17T11:45:56.003Z,27.72
2019-05-17T11:46:55.995Z,38.32
2019-05-17T11:47:56.091Z,41.05
2019-05-17T11:48:55.987Z,43.47
2019-05-17T11:49:55.956Z,34.00
2019-05-17T11:50:55.946Z,40.66
2019-05-17T11:51:55.934Z,29.21
2019-05-17T11:52:55.921Z,38.69
2019-05-17T11:53:55.920Z,23.57
2019-05-17T11:54:55.919Z,32.58
2019-05-17T11:55:55.893Z,35.91
2019-05-17T11:56:55.880Z,26.43
2019-05-17T11:57:55.865Z,32.93
2019-05-17T11:58:55.854Z,38.59
2019-05-17T11:59:55.853Z,21.84
2019-05-17T12:00:55.833Z,33.14
2019-05-17T12:01:55.836Z,41.35
2019-05-17T12:02:55.812Z,40.50
2019-05-17T12:03:55.803Z,10.59
2019-05-17T12:04:55.798Z,10.34
2019-05-17T12:05:55.787Z,26.67
2019-05-17T12:06:55.773Z,24.14
2019-05-17T12:07:55.757Z,20.38
2019-05-17T12:08:55.746Z,14.37
2019-05-17T12:09:55.737Z,18.11
2019-05-17T12:10:55.887Z,42.56
2019-05-17T12:11:55.736Z,19.11
2019-05-17T12:12:55.712Z,25.18
2019-05-17T12:13:55.690Z,-4.91
2019-05-17T12:14:55.707Z,21.32
2019-05-17T12:15:55.668Z,47.18
2019-05-17T12:16:55.678Z,33.22
2019-05-17T12:17:55.651Z,44.31
2019-05-17T12:18:55.637Z,34.28
2019-05-17T12:19:55.620Z,26.08
2019-05-17T12:20:55.663Z,19.55
2019-05-17T12:21:55.615Z,12.50
2019-05-17T12:22:55.604Z,6.13
2019-05-17T12:23:55.581Z,9.18
2019-05-17T12:24:55.564Z,25.66
2019-05-17T12:25:55.560Z,47.74
2019-05-17T12:26:55.546Z,24.29
2019-05-17T12:27:55.540Z,24.58
2019-05-17T12:28:55.524Z,15.88
2019-05-17T12:29:55.515Z,33.36
2019-05-17T12:30:55.517Z,29.44
2019-05-17T12:31:55.497Z,36.34
2019-05-17T12:32:55.480Z,8.75
2019-05-17T12:33:55.470Z,34.09
2019-05-17T12:34:55.460Z,41.60
2019-05-17T12:35:55.449Z,16.37
2019-05-17T12:36:55.438Z,24.68
2019-05-17T12:37:55.426Z,54.48
2019-05-17T12:38:55.420Z,43.20
2019-05-17T12:39:55.421Z,35.16
2019-05-17T12:40:55.400Z,32.47
2019-05-17T12:41:55.530Z,44.10
2019-05-17T12:42:55.430Z,38.85
2019-05-17T12:43:55.366Z,12.85
2019-05-17T12:44:55.347Z,30.84
2019-05-17T12:46:00.581Z,14.36
2019-05-17T12:46:56.360Z,44.19
2019-05-17T12:47:55.319Z,18.80
2019-05-17T12:48:55.318Z,38.00
2019-05-17T12:49:55.306Z,13.57
2019-05-17T12:50:55.287Z,2.54
2019-05-17T12:51:55.283Z,23.60